Time;durP1;ratioP1;P1;durP2;ratioP2;P2;SDS_P1;SDS_P2;PMS_P1;PMS_P2;Temp;Humidity;BMP_temperature;BMP_pressure;BME280_temperature;BME280_humidity;BME280_pressure;Samples;Min_cycle;Max_cycle;Signal;HPM_P1;HPM_P2
2022/12/15 04:00:56;;;;;;;26.07;20.67;;;1.00;84.50;;;;;;5873271;23;20487;-74
2022/12/15 04:03:23;;;;;;;33.70;24.20;;;1.10;83.80;;;;;;5017127;28;20884;-75
2022/12/15 04:05:50;;;;;;;37.10;24.70;;;1.10;83.70;;;;;;5017083;28;20463;-75
2022/12/15 04:08:17;;;;;;;29.30;22.37;;;1.20;83.70;;;;;;5017157;28;20448;-74
2022/12/15 04:10:43;;;;;;;31.83;25.07;;;1.10;83.80;;;;;;5017041;28;20468;-75
2022/12/15 04:13:11;;;;;;;34.30;23.53;;;1.10;84.20;;;;;;5016688;28;20440;-75
2022/12/15 04:15:40;;;;;;;34.07;24.53;;;1.20;84.00;;;;;;5017620;28;20448;-74
2022/12/15 04:18:09;;;;;;;32.60;21.00;;;1.30;83.50;;;;;;5017101;28;20473;-75
2022/12/15 04:20:37;;;;;;;32.37;22.70;;;1.30;83.40;;;;;;5016554;28;20448;-75
2022/12/15 04:23:06;;;;;;;29.30;21.63;;;1.40;83.20;;;;;;5016467;28;20476;-75
2022/12/15 05:31:51;;;;;;;30.30;21.53;;;1.10;84.40;;;;;;5016053;28;20476;-74
2022/12/15 05:34:19;;;;;;;31.03;24.77;;;1.20;84.10;;;;;;5016137;28;20437;-75
2022/12/15 05:36:45;;;;;;;31.47;22.20;;;1.30;83.70;;;;;;5016580;28;20448;-75
2022/12/15 05:39:14;;;;;;;28.77;22.67;;;1.30;83.50;;;;;;5016729;28;20453;-75
2022/12/15 05:41:41;;;;;;;28.37;20.60;;;1.30;82.70;;;;;;5016116;28;20472;-74
2022/12/15 05:44:08;;;;;;;29.53;22.33;;;1.20;83.20;;;;;;5015523;28;20830;-75
2022/12/15 05:46:35;;;;;;;29.37;22.40;;;1.00;83.40;;;;;;5015719;28;20455;-74
2022/12/15 05:49:03;;;;;;;31.43;21.57;;;0.90;83.60;;;;;;5016036;28;20448;-75
2022/12/15 05:51:29;;;;;;;31.17;23.47;;;0.90;84.00;;;;;;5016066;28;20563;-75
2022/12/15 05:53:56;;;;;;;29.50;23.07;;;0.90;83.90;;;;;;5016266;28;20444;-75
2022/12/15 05:56:27;;;;;;;30.73;22.17;;;0.90;84.00;;;;;;5015843;28;20833;-74
2022/12/15 05:58:55;;;;;;;34.40;24.07;;;0.80;84.50;;;;;;5014728;28;20453;-75
2022/12/15 06:01:22;;;;;;;32.20;22.03;;;0.70;84.50;;;;;;5015402;28;21063;-75
2022/12/15 06:03:48;;;;;;;28.80;21.40;;;0.70;85.00;;;;;;5015451;28;20484;-75
2022/12/15 06:06:15;;;;;;;28.17;22.60;;;0.90;84.70;;;;;;5015704;28;20452;-73
2022/12/15 06:08:43;;;;;;;31.70;20.80;;;0.70;84.30;;;;;;5015783;28;20440;-75
2022/12/15 06:11:12;;;;;;;28.70;21.70;;;0.60;84.70;;;;;;5015620;28;20480;-75
2022/12/15 06:13:40;;;;;;;27.67;20.80;;;0.60;85.30;;;;;;5015771;28;20451;-77
2022/12/15 06:16:11;;;;;;;33.80;24.03;;;0.80;84.50;;;;;;5015445;28;20449;-75
2022/12/15 06:18:39;;;;;;;29.40;20.97;;;0.80;84.70;;;;;;5015250;28;20452;-76
2022/12/15 06:21:08;;;;;;;33.17;23.40;;;0.80;83.90;;;;;;5014561;28;20469;-75
2022/12/15 06:23:35;;;;;;;34.07;23.53;;;0.60;84.30;;;;;;5014390;28;20496;-75
2022/12/15 06:26:10;;;;;;;32.37;22.67;;;0.40;85.00;;;;;;5014415;28;20468;-75
2022/12/15 06:28:37;;;;;;;29.30;20.77;;;0.20;85.60;;;;;;5014426;28;20439;-75
2022/12/15 06:31:07;;;;;;;29.03;22.87;;;0.20;86.20;;;;;;5013932;28;20469;-75
2022/12/15 06:33:34;;;;;;;30.20;24.97;;;0.20;86.70;;;;;;5014316;28;20814;-75
2022/12/15 06:36:03;;;;;;;32.43;23.23;;;0.30;86.80;;;;;;5013946;28;20968;-75
2022/12/15 06:38:30;;;;;;;27.57;21.73;;;0.50;86.20;;;;;;5014273;28;20480;-75
2022/12/15 06:40:57;;;;;;;30.53;21.17;;;0.60;85.70;;;;;;5014069;28;20469;-75
2022/12/15 06:43:24;;;;;;;26.70;21.57;;;0.40;85.50;;;;;;5013781;28;21011;-75
2022/12/15 06:45:51;;;;;;;29.50;20.00;;;0.40;86.10;;;;;;5013817;28;20480;-74
2022/12/15 06:48:19;;;;;;;25.07;20.80;;;0.50;86.00;;;;;;5014240;28;20444;-74
2022/12/15 06:50:46;;;;;;;30.73;20.80;;;0.70;85.30;;;;;;5014223;28;20464;-75
2022/12/15 06:53:14;;;;;;;23.70;20.60;;;0.50;85.10;;;;;;5014082;28;20444;-75
2022/12/15 06:55:41;;;;;;;27.93;21.10;;;0.30;85.50;;;;;;5013955;28;20455;-74
2022/12/15 06:58:08;;;;;;;29.73;21.47;;;0.30;86.20;;;;;;5013927;28;20452;-75
2022/12/15 07:00:36;;;;;;;29.60;21.10;;;0.20;86.30;;;;;;5013461;28;20805;-74
2022/12/15 07:03:03;;;;;;;32.50;21.80;;;0.20;87.00;;;;;;5013792;28;20460;-74
2022/12/15 07:05:31;;;;;;;27.33;21.83;;;0.30;87.50;;;;;;5014037;28;20448;-74
2022/12/15 07:07:58;;;;;;;32.30;21.03;;;0.40;86.70;;;;;;5014115;28;20456;-74
2022/12/15 07:10:25;;;;;;;32.97;22.17;;;0.60;86.70;;;;;;5013863;28;20455;-74
2022/12/15 07:12:51;;;;;;;36.10;25.80;;;0.80;86.00;;;;;;5013910;28;20459;-74
2022/12/15 07:15:18;;;;;;;34.93;23.23;;;0.90;85.30;;;;;;5013461;28;20450;-74
2022/12/15 07:17:45;;;;;;;27.97;22.10;;;1.00;84.90;;;;;;5013786;28;20452;-74
2022/12/15 07:20:12;;;;;;;34.07;23.10;;;0.90;84.40;;;;;;5013534;28;20451;-74
2022/12/15 07:22:41;;;;;;;28.40;23.20;;;0.90;84.40;;;;;;5013550;28;20468;-74
2022/12/15 07:25:09;;;;;;;30.40;23.27;;;0.70;85.00;;;;;;5013533;28;20487;-74
2022/12/15 07:27:36;;;;;;;35.47;23.83;;;0.80;85.10;;;;;;5013623;28;20506;-74
2022/12/15 07:30:02;;;;;;;33.80;22.93;;;0.80;85.30;;;;;;5013530;28;20491;-74
2022/12/15 07:32:30;;;;;;;30.03;20.93;;;0.80;85.10;;;;;;5013703;28;20471;-74
2022/12/15 07:34:56;;;;;;;29.87;22.10;;;0.90;85.30;;;;;;5013885;28;20858;-73
2022/12/15 07:37:23;;;;;;;25.87;20.80;;;0.90;85.10;;;;;;5013598;28;20452;-74
2022/12/15 07:39:51;;;;;;;33.80;23.63;;;0.90;85.10;;;;;;5013571;28;20445;-74
2022/12/15 07:42:18;;;;;;;30.77;23.07;;;0.90;85.00;;;;;;5013397;28;20853;-73
2022/12/15 07:44:45;;;;;;;33.97;23.67;;;0.80;85.30;;;;;;5013347;28;20486;-74
2022/12/15 07:47:12;;;;;;;34.77;23.77;;;0.90;85.30;;;;;;5013159;28;20968;-74
2022/12/15 07:49:38;;;;;;;32.23;22.70;;;1.10;84.90;;;;;;5013516;28;20860;-73
2022/12/15 07:52:05;;;;;;;30.50;23.20;;;1.20;84.50;;;;;;5013344;28;20504;-73
2022/12/15 07:54:32;;;;;;;31.63;21.60;;;1.20;84.30;;;;;;5013457;28;20441;-74
2022/12/15 07:57:01;;;;;;;40.17;21.30;;;1.10;84.00;;;;;;5013891;28;20452;-74
2022/12/15 07:59:28;;;;;;;33.53;23.43;;;1.10;84.50;;;;;;5014753;28;20460;-74
2022/12/15 08:01:54;;;;;;;27.23;21.03;;;1.10;84.80;;;;;;5014025;28;20852;-74
2022/12/15 08:04:21;;;;;;;34.70;22.37;;;1.00;84.30;;;;;;5014128;28;20489;-74
2022/12/15 08:06:48;;;;;;;37.90;25.93;;;1.00;85.00;;;;;;5014455;28;20455;-73
2022/12/15 08:09:14;;;;;;;31.90;24.03;;;1.30;84.60;;;;;;5014154;28;20457;-74
2022/12/15 08:11:41;;;;;;;33.67;24.70;;;1.20;83.70;;;;;;5013773;28;20487;-74
2022/12/15 08:14:10;;;;;;;30.00;21.60;;;1.20;84.40;;;;;;5014008;28;20851;-74
2022/12/15 08:16:36;;;;;;;31.30;22.90;;;1.30;83.80;;;;;;5013844;28;20510;-74
2022/12/15 08:19:04;;;;;;;28.40;23.10;;;1.40;83.70;;;;;;5014122;28;20455;-74
2022/12/15 08:21:32;;;;;;;33.83;24.00;;;1.20;83.60;;;;;;5014023;28;20575;-74
2022/12/15 08:23:59;;;;;;;44.00;26.13;;;1.00;84.20;;;;;;5017276;28;20503;-74
2022/12/15 08:26:26;;;;;;;29.70;23.80;;;0.90;85.10;;;;;;5019635;28;20451;-74
2022/12/15 08:28:53;;;;;;;31.30;23.33;;;1.00;84.60;;;;;;5018271;28;20506;-74
2022/12/15 08:31:23;;;;;;;28.73;22.77;;;1.00;84.80;;;;;;5023074;28;20468;-74
2022/12/15 08:33:50;;;;;;;34.60;24.00;;;1.00;84.80;;;;;;5037820;28;20481;-74
2022/12/15 08:36:18;;;;;;;34.43;25.00;;;1.00;84.90;;;;;;5032740;28;20455;-75
2022/12/15 08:38:46;;;;;;;31.37;23.47;;;0.90;85.10;;;;;;5019664;28;20818;-74
2022/12/15 08:41:15;;;;;;;27.90;21.10;;;0.90;85.50;;;;;;5018520;28;20480;-73
2022/12/15 08:43:42;;;;;;;33.87;23.33;;;0.90;85.50;;;;;;5018964;28;21012;-74
2022/12/15 08:46:09;;;;;;;34.00;24.70;;;0.90;85.90;;;;;;5018031;28;20452;-74
2022/12/15 08:48:37;;;;;;;36.70;25.27;;;0.90;85.70;;;;;;5018669;28;20448;-74
2022/12/15 08:51:04;;;;;;;31.00;23.90;;;1.10;86.00;;;;;;5018579;28;20495;-74
2022/12/15 08:53:31;;;;;;;33.13;23.50;;;1.30;85.20;;;;;;5018230;28;20455;-74
2022/12/15 08:56:02;;;;;;;32.43;24.70;;;1.50;84.40;;;;;;5017815;28;20848;-74
2022/12/15 08:58:28;;;;;;;38.63;24.50;;;1.40;83.90;;;;;;5018316;28;20436;-74
2022/12/15 09:01:00;;;;;;;31.47;23.00;;;1.40;84.00;;;;;;5016963;28;21012;-75
2022/12/15 09:03:26;;;;;;;29.00;23.20;;;1.60;84.10;;;;;;5016784;28;20807;-74
2022/12/15 09:05:56;;;;;;;30.53;21.43;;;1.70;83.60;;;;;;5016440;28;20451;-74
2022/12/15 09:08:23;;;;;;;27.57;20.90;;;1.70;83.00;;;;;;5016861;28;20885;-73
2022/12/15 09:10:50;;;;;;;28.80;22.70;;;1.70;83.40;;;;;;5016371;28;20479;-74
2022/12/15 09:13:16;;;;;;;36.60;24.83;;;1.70;83.20;;;;;;5016367;28;20448;-75
2022/12/15 09:15:44;;;;;;;31.70;23.13;;;1.80;83.60;;;;;;5016258;28;20441;-74
2022/12/15 09:18:11;;;;;;;33.33;22.93;;;1.90;83.30;;;;;;5016050;28;20543;-75
2022/12/15 09:20:37;;;;;;;32.87;24.70;;;2.00;83.10;;;;;;5016102;28;20470;-75
2022/12/15 09:23:06;;;;;;;29.80;22.03;;;1.80;83.00;;;;;;5015863;28;20456;-74
2022/12/15 09:25:32;;;;;;;35.23;24.90;;;1.70;83.90;;;;;;5015358;28;21035;-74
2022/12/15 09:27:59;;;;;;;31.43;22.07;;;1.80;83.80;;;;;;5015639;28;20503;-74
2022/12/15 09:30:26;;;;;;;28.70;22.90;;;1.80;83.50;;;;;;5015755;28;20866;-73
2022/12/15 09:32:53;;;;;;;36.87;22.57;;;2.00;83.90;;;;;;5015629;28;20455;-74
2022/12/15 09:35:20;;;;;;;33.93;24.07;;;2.10;83.10;;;;;;5015546;28;20444;-73
2022/12/15 09:37:46;;;;;;;31.63;23.97;;;2.20;82.20;;;;;;5015638;28;20449;-73
2022/12/15 09:40:14;;;;;;;30.60;22.27;;;2.10;82.80;;;;;;5015405;28;20453;-74
2022/12/15 09:42:41;;;;;;;33.37;23.13;;;2.30;83.20;;;;;;5015353;28;20835;-73
2022/12/15 09:45:17;;;;;;;33.57;23.23;;;2.50;82.90;;;;;;5015719;28;20472;-73
2022/12/15 09:47:51;;;;;;;30.17;23.17;;;2.50;81.30;;;;;;5016196;28;20436;-73
2022/12/15 09:50:23;;;;;;;36.10;23.87;;;2.10;82.40;;;;;;5015061;28;20906;-73
2022/12/15 09:52:53;;;;;;;32.80;22.50;;;2.20;82.80;;;;;;5015417;28;20507;-72
2022/12/15 09:55:24;;;;;;;38.53;26.50;;;2.00;82.90;;;;;;5015308;28;20437;-73
2022/12/15 09:57:53;;;;;;;34.20;24.07;;;2.20;83.40;;;;;;5015255;28;20440;-73
2022/12/15 10:00:24;;;;;;;30.60;25.00;;;2.10;83.10;;;;;;5015355;28;20488;-73
2022/12/15 10:03:26;;;;;;;33.83;24.23;;;2.20;83.30;;;;;;5014941;28;20434;-73
2022/12/15 10:06:02;;;;;;;34.30;25.47;;;2.30;83.10;;;;;;5014971;28;20468;-74
2022/12/15 10:08:32;;;;;;;33.00;22.63;;;2.50;82.80;;;;;;5014895;28;20474;-74
2022/12/15 10:11:03;;;;;;;29.90;22.70;;;2.30;82.00;;;;;;5014431;28;20993;-73
2022/12/15 10:13:38;;;;;;;32.90;22.33;;;2.30;82.60;;;;;;5015334;28;20435;-73
2022/12/15 10:16:15;;;;;;;32.83;23.80;;;2.50;82.20;;;;;;5014694;28;20466;-73
2022/12/15 10:18:52;;;;;;;32.07;22.50;;;2.60;81.80;;;;;;5014816;28;20804;-73
2022/12/15 10:21:26;;;;;;;31.83;23.73;;;2.60;81.30;;;;;;5014609;28;20475;-73
2022/12/15 10:23:54;;;;;;;35.97;24.93;;;2.40;82.50;;;;;;5014472;28;20432;-73
2022/12/15 10:26:25;;;;;;;34.53;25.50;;;2.50;82.80;;;;;;5014387;28;20451;-72
2022/12/15 10:29:06;;;;;;;32.20;26.20;;;2.60;82.30;;;;;;5014477;28;20433;-73
2022/12/15 10:31:38;;;;;;;40.27;25.07;;;2.70;82.20;;;;;;5014295;28;20468;-73
2022/12/15 10:34:10;;;;;;;35.63;25.50;;;2.60;81.90;;;;;;5014302;28;20447;-73
2022/12/15 10:36:37;;;;;;;31.03;23.37;;;2.70;82.40;;;;;;5013984;28;20972;-73
2022/12/15 10:39:03;;;;;;;68.67;28.83;;;2.60;81.80;;;;;;5014154;28;20448;-73
2022/12/15 10:41:33;;;;;;;38.40;23.67;;;2.70;81.80;;;;;;5014063;28;20468;-74
2022/12/15 10:44:01;;;;;;;35.50;23.10;;;2.90;81.20;;;;;;5013639;28;20535;-74
2022/12/15 10:46:30;;;;;;;34.67;24.47;;;2.80;80.70;;;;;;5013503;28;20452;-73
2022/12/15 10:48:59;;;;;;;31.47;22.30;;;2.80;81.00;;;;;;5013787;28;21009;-73
2022/12/15 10:51:29;;;;;;;35.10;24.87;;;2.60;81.20;;;;;;5013655;28;20550;-72
2022/12/15 10:54:05;;;;;;;32.23;22.70;;;2.60;81.50;;;;;;5014228;28;20451;-74
2022/12/15 10:56:34;;;;;;;31.17;23.37;;;2.70;81.10;;;;;;5014218;28;20442;-74
2022/12/15 10:59:03;;;;;;;32.50;25.07;;;2.60;81.00;;;;;;5014410;28;20451;-73
2022/12/15 11:01:32;;;;;;;29.50;23.37;;;2.70;81.10;;;;;;5014157;28;20917;-73
2022/12/15 11:03:59;;;;;;;30.07;22.80;;;2.70;80.90;;;;;;5013997;28;20870;-73
2022/12/15 11:06:28;;;;;;;35.33;22.27;;;2.60;81.00;;;;;;5014526;28;20531;-73
2022/12/15 11:08:57;;;;;;;34.10;23.37;;;2.50;80.70;;;;;;5013823;28;20459;-73
2022/12/15 11:14:16;;;;;;;32.17;22.07;;;2.50;81.70;;;;;;5013577;28;20451;-73
2022/12/15 11:16:47;;;;;;;29.33;23.93;;;2.60;81.40;;;;;;5013597;28;20906;-73
2022/12/15 11:19:21;;;;;;;35.17;21.27;;;2.70;80.90;;;;;;5013717;28;20432;-72
2022/12/15 11:21:55;;;;;;;34.03;22.20;;;2.80;80.60;;;;;;5013256;28;20993;-74
2022/12/15 11:24:31;;;;;;;31.93;22.77;;;3.00;80.30;;;;;;5013592;28;20437;-73
2022/12/15 11:27:05;;;;;;;30.90;22.50;;;3.00;80.40;;;;;;5013725;28;20428;-73
2022/12/15 11:29:44;;;;;;;30.03;22.37;;;2.90;80.50;;;;;;5013748;28;20438;-72
2022/12/15 11:32:12;;;;;;;35.53;25.03;;;3.00;80.10;;;;;;5013382;28;21026;-72
2022/12/15 11:34:43;;;;;;;37.07;24.27;;;2.90;79.70;;;;;;5013650;28;20444;-72
2022/12/15 11:37:35;;;;;;;37.30;24.07;;;2.60;80.50;;;;;;5013749;28;20433;-73
2022/12/15 11:40:39;;;;;;;34.03;24.10;;;2.50;81.60;;;;;;5006970;28;21089;-73
2022/12/15 11:43:47;;;;;;;31.77;21.70;;;2.70;81.40;;;;;;4967145;28;20847;-72
2022/12/15 11:46:21;;;;;;;27.87;22.17;;;2.90;80.80;;;;;;4993435;28;20495;-73
2022/12/15 11:49:11;;;;;;;29.70;22.17;;;2.90;80.80;;;;;;5013305;28;20432;-73
2022/12/15 11:51:44;;;;;;;33.30;21.73;;;2.80;80.60;;;;;;5013242;28;20499;-71
2022/12/15 11:54:19;;;;;;;32.87;22.60;;;2.80;81.40;;;;;;5013363;28;20437;-72
2022/12/15 11:56:50;;;;;;;28.90;21.63;;;2.80;81.50;;;;;;5015294;28;20436;-74
2022/12/15 11:59:50;;;;;;;29.57;21.10;;;3.00;81.00;;;;;;5017324;28;20918;-73
2022/12/15 12:02:43;;;;;;;34.73;23.53;;;3.00;81.10;;;;;;5016890;28;20483;-73
2022/12/15 12:05:41;;;;;;;32.13;20.87;;;3.00;80.80;;;;;;5017658;28;20515;-73
2022/12/15 12:08:23;;;;;;;27.93;20.97;;;2.90;80.50;;;;;;4990284;28;20527;-73
2022/12/15 12:10:57;;;;;;;30.63;22.00;;;2.90;81.10;;;;;;5016634;28;20977;-74
2022/12/15 12:13:30;;;;;;;30.67;21.20;;;2.70;82.10;;;;;;5017589;28;20492;-72
2022/12/15 12:16:08;;;;;;;32.27;23.57;;;2.80;82.40;;;;;;5016928;28;20425;-73
2022/12/15 12:18:39;;;;;;;30.20;22.37;;;2.90;82.10;;;;;;5016618;28;20487;-71
2022/12/15 12:21:10;;;;;;;33.37;23.17;;;2.90;82.20;;;;;;5017031;28;20479;-73
2022/12/15 12:23:42;;;;;;;25.57;20.73;;;2.60;82.30;;;;;;5017151;28;20487;-71
2022/12/15 12:26:16;;;;;;;33.07;21.87;;;2.50;83.40;;;;;;5017305;28;20464;-72
2022/12/15 12:28:46;;;;;;;32.37;24.10;;;2.70;83.70;;;;;;5016454;28;20804;-73
2022/12/15 12:31:35;;;;;;;33.53;23.97;;;2.80;82.60;;;;;;5016517;28;20464;-74
2022/12/15 12:34:12;;;;;;;31.30;21.17;;;3.00;82.80;;;;;;5016631;28;20479;-73
2022/12/15 12:36:40;;;;;;;30.40;21.60;;;3.00;81.80;;;;;;5016380;28;20852;-74
2022/12/15 12:39:15;;;;;;;33.27;22.27;;;3.00;82.40;;;;;;5016534;28;20456;-73
2022/12/15 12:41:47;;;;;;;32.70;23.93;;;2.90;82.00;;;;;;5016123;28;20984;-73
2022/12/15 12:44:25;;;;;;;38.60;24.60;;;2.60;82.30;;;;;;5016180;28;20955;-73
2022/12/15 12:46:55;;;;;;;31.90;23.07;;;2.60;83.50;;;;;;5016578;28;20799;-73
2022/12/15 12:49:29;;;;;;;29.60;22.93;;;2.50;83.20;;;;;;5016345;28;20515;-72
2022/12/15 12:51:59;;;;;;;31.13;22.10;;;2.30;83.70;;;;;;5016192;28;20467;-73
2022/12/15 12:54:44;;;;;;;30.07;21.40;;;2.30;83.90;;;;;;5015885;28;20934;-72
2022/12/15 12:57:30;;;;;;;30.73;23.73;;;2.50;83.70;;;;;;5016185;28;20490;-73
2022/12/15 13:00:00;;;;;;;33.30;24.17;;;2.60;83.60;;;;;;5016090;28;20444;-73
2022/12/15 13:02:56;;;;;;;28.70;21.97;;;2.70;83.50;;;;;;5015961;28;20483;-72
2022/12/15 13:05:30;;;;;;;30.60;23.47;;;2.60;83.00;;;;;;4999241;28;20538;-72
2022/12/15 13:08:31;;;;;;;39.53;26.00;;;2.40;83.30;;;;;;5015799;28;20428;-73
2022/12/15 13:11:37;;;;;;;28.80;24.13;;;2.10;84.10;;;;;;4999511;28;20479;-72
2022/12/15 13:14:04;;;;;;;36.60;22.87;;;2.10;84.60;;;;;;5015746;28;21010;-72
2022/12/15 13:16:31;;;;;;;34.63;23.73;;;2.10;85.30;;;;;;5016911;28;20457;-73
2022/12/15 13:19:02;;;;;;;32.03;23.77;;;2.30;84.70;;;;;;5016060;28;20445;-74
2022/12/15 13:21:55;;;;;;;29.90;22.70;;;2.50;84.40;;;;;;5015798;28;20479;-72
2022/12/15 13:24:33;;;;;;;27.60;21.90;;;2.40;83.90;;;;;;5015952;28;20436;-72
2022/12/15 13:27:20;;;;;;;30.93;23.83;;;2.30;84.30;;;;;;5016155;28;20478;-73
2022/12/15 13:30:01;;;;;;;35.53;22.57;;;2.50;84.10;;;;;;5009424;28;20459;-73
2022/12/15 13:32:35;;;;;;;30.50;22.00;;;2.50;83.90;;;;;;5015862;28;20471;-72
2022/12/15 13:35:21;;;;;;;31.70;22.60;;;2.30;84.20;;;;;;5015727;28;20491;-72
2022/12/15 13:37:52;;;;;;;25.27;20.07;;;2.40;84.90;;;;;;5016281;28;20436;-72
2022/12/15 13:40:33;;;;;;;29.40;20.30;;;2.30;84.50;;;;;;5015498;28;20432;-72
2022/12/15 13:43:09;;;;;;;31.47;23.33;;;2.40;84.70;;;;;;5015816;28;20428;-73
2022/12/15 13:45:50;;;;;;;26.00;18.90;;;2.50;84.10;;;;;;5015305;28;20467;-72
2022/12/15 13:48:34;;;;;;;24.53;18.20;;;2.40;84.10;;;;;;5015818;28;20521;-73
2022/12/15 13:51:23;;;;;;;26.67;19.83;;;2.40;84.30;;;;;;5015211;28;20553;-72
2022/12/15 13:53:57;;;;;;;27.03;19.57;;;2.50;84.00;;;;;;5015355;28;20470;-72
2022/12/15 13:56:41;;;;;;;25.27;18.70;;;2.40;83.80;;;;;;5015260;28;20429;-70
2022/12/15 13:59:16;;;;;;;28.50;21.23;;;2.40;83.60;;;;;;5015197;28;20843;-73
2022/12/15 14:01:49;;;;;;;26.63;20.57;;;2.40;83.60;;;;;;5014897;28;20478;-73
2022/12/15 14:04:16;;;;;;;25.87;17.87;;;2.40;84.10;;;;;;5015188;28;20519;-73
2022/12/15 14:06:47;;;;;;;23.60;18.80;;;2.50;84.00;;;;;;5014800;28;20995;-72
2022/12/15 14:09:19;;;;;;;25.57;18.17;;;2.50;83.60;;;;;;5015256;28;20487;-72
2022/12/15 14:11:48;;;;;;;23.43;19.57;;;2.40;84.40;;;;;;5015196;28;20475;-72
2022/12/15 14:14:19;;;;;;;25.07;18.40;;;2.30;84.10;;;;;;5014948;28;20471;-73
2022/12/15 14:16:46;;;;;;;24.43;19.40;;;2.30;84.60;;;;;;5015104;28;20443;-73
2022/12/15 14:19:15;;;;;;;24.20;18.77;;;2.20;84.70;;;;;;5014556;28;20457;-73
2022/12/15 14:21:49;;;;;;;27.77;18.80;;;2.30;84.90;;;;;;5014265;28;20550;-73
2022/12/15 14:24:29;;;;;;;28.90;18.10;;;2.30;84.50;;;;;;5014719;28;20433;-72
2022/12/15 14:26:56;;;;;;;28.50;20.20;;;2.40;84.70;;;;;;5023996;28;20495;-71
2022/12/15 14:29:23;;;;;;;24.87;17.53;;;2.60;84.20;;;;;;5017748;28;20539;-73
2022/12/15 14:31:53;;;;;;;30.83;21.00;;;2.70;83.90;;;;;;5015351;28;20527;-72
2022/12/15 14:34:26;;;;;;;26.67;18.07;;;2.70;83.50;;;;;;5014668;28;20797;-72
2022/12/15 14:36:55;;;;;;;23.93;18.43;;;2.60;83.40;;;;;;5014631;28;20429;-72
2022/12/15 14:39:26;;;;;;;26.97;20.17;;;2.60;83.80;;;;;;5014569;28;20459;-72
2022/12/15 14:41:56;;;;;;;35.20;22.03;;;2.50;84.20;;;;;;5014422;28;20576;-73
2022/12/15 14:44:30;;;;;;;32.03;20.23;;;2.60;84.00;;;;;;5014387;28;20456;-73
2022/12/15 14:46:58;;;;;;;28.00;19.97;;;2.70;83.90;;;;;;5014461;28;20470;-73
2022/12/15 14:49:28;;;;;;;30.43;22.17;;;2.80;83.70;;;;;;5014488;28;20447;-72
2022/12/15 14:51:59;;;;;;;34.17;22.77;;;2.80;83.60;;;;;;5014183;28;20472;-73
2022/12/15 14:54:32;;;;;;;31.10;21.50;;;2.70;83.20;;;;;;5014486;28;20432;-72
2022/12/15 14:57:02;;;;;;;35.27;20.90;;;2.60;83.70;;;;;;5014478;28;20440;-73
2022/12/15 14:59:33;;;;;;;26.03;20.50;;;2.60;84.00;;;;;;5014353;28;20452;-72
2022/12/15 15:02:11;;;;;;;29.63;21.13;;;2.70;84.00;;;;;;5013746;28;21111;-73
2022/12/15 15:04:38;;;;;;;31.83;21.80;;;2.70;83.80;;;;;;5013946;28;20464;-72
2022/12/15 15:07:08;;;;;;;31.50;21.93;;;2.60;83.80;;;;;;5013909;28;20492;-73
2022/12/15 15:09:40;;;;;;;27.37;20.10;;;2.60;83.50;;;;;;5013951;28;20525;-72
2022/12/15 15:12:14;;;;;;;28.00;20.30;;;2.40;83.70;;;;;;5014055;28;20468;-73
2022/12/15 15:14:43;;;;;;;29.87;21.17;;;2.30;84.50;;;;;;5014003;28;20448;-72
2022/12/15 15:17:20;;;;;;;30.17;19.07;;;2.30;84.70;;;;;;5013890;28;20445;-73
2022/12/15 15:19:51;;;;;;;27.67;20.30;;;2.20;84.80;;;;;;5013889;28;20439;-72
2022/12/15 15:22:33;;;;;;;29.70;20.07;;;2.20;84.90;;;;;;5013755;28;20468;-73
2022/12/15 15:24:59;;;;;;;29.97;19.80;;;2.10;85.00;;;;;;5013761;28;20495;-74
2022/12/15 15:27:35;;;;;;;28.80;20.40;;;2.00;85.60;;;;;;5013817;28;20487;-71
2022/12/15 15:30:21;;;;;;;28.47;21.17;;;2.10;85.90;;;;;;5013790;28;20495;-73
2022/12/15 15:32:54;;;;;;;28.93;19.17;;;2.10;85.80;;;;;;5013940;28;20523;-74
2022/12/15 15:35:21;;;;;;;32.23;20.20;;;2.20;86.00;;;;;;5013968;28;20484;-72
2022/12/15 15:37:48;;;;;;;28.20;21.47;;;2.20;85.40;;;;;;5013303;28;20495;-72
2022/12/15 15:40:17;;;;;;;29.20;18.30;;;2.30;85.30;;;;;;5013593;28;21016;-73
2022/12/15 15:42:45;;;;;;;30.90;20.37;;;2.30;85.00;;;;;;5013778;28;20475;-72
2022/12/15 15:45:15;;;;;;;29.97;18.80;;;2.10;85.60;;;;;;5013581;28;20457;-72
2022/12/15 15:47:46;;;;;;;31.63;22.33;;;2.20;85.80;;;;;;5013662;28;20480;-73
2022/12/15 15:50:15;;;;;;;27.37;20.10;;;2.00;85.70;;;;;;5013572;28;20929;-73
2022/12/15 15:52:43;;;;;;;28.97;21.20;;;2.10;86.40;;;;;;5013567;28;20514;-73
2022/12/15 15:55:14;;;;;;;27.13;19.83;;;2.00;86.30;;;;;;5013631;28;20456;-74
2022/12/15 15:57:41;;;;;;;29.37;20.83;;;1.90;86.20;;;;;;5013615;28;20437;-73
2022/12/15 16:00:18;;;;;;;31.30;21.40;;;1.90;86.50;;;;;;5013282;28;21012;-74
2022/12/15 16:02:45;;;;;;;33.07;20.30;;;1.80;86.70;;;;;;5013045;28;20511;-73
2022/12/15 16:05:12;;;;;;;32.60;21.53;;;1.80;87.20;;;;;;5013474;28;20440;-74
2022/12/15 16:07:39;;;;;;;29.50;21.80;;;1.70;87.30;;;;;;5013471;28;20830;-74
2022/12/15 16:10:12;;;;;;;28.83;21.60;;;1.90;87.50;;;;;;5013425;28;20448;-74
2022/12/15 16:12:42;;;;;;;29.27;18.97;;;2.00;86.80;;;;;;5013438;28;20561;-80
2022/12/15 16:15:16;;;;;;;26.73;20.03;;;1.90;86.80;;;;;;5015126;28;20965;-73
2022/12/15 16:17:43;;;;;;;31.90;21.30;;;1.90;87.30;;;;;;5014642;28;20429;-74
2022/12/15 16:20:12;;;;;;;31.03;20.17;;;2.00;87.10;;;;;;5014255;28;20479;-73
2022/12/15 16:22:40;;;;;;;29.50;20.00;;;2.00;86.90;;;;;;5013092;28;20483;-72
2022/12/15 16:25:13;;;;;;;30.27;21.13;;;2.10;87.00;;;;;;5013323;28;20534;-72
2022/12/15 16:27:40;;;;;;;27.77;19.17;;;2.10;86.80;;;;;;5013396;28;20475;-72
2022/12/15 16:30:17;;;;;;;28.33;21.27;;;2.10;86.60;;;;;;5012898;28;20942;-73
2022/12/15 16:32:43;;;;;;;24.70;19.17;;;2.00;86.60;;;;;;5013362;28;20872;-72
2022/12/15 16:35:10;;;;;;;29.83;20.17;;;2.10;86.80;;;;;;5012789;28;20870;-72
2022/12/15 16:37:37;;;;;;;25.90;18.37;;;2.20;86.50;;;;;;5012757;28;20942;-72
2022/12/15 16:40:14;;;;;;;30.30;19.90;;;2.20;86.30;;;;;;5013159;28;20489;-72
2022/12/15 16:42:41;;;;;;;27.67;20.47;;;2.20;86.10;;;;;;5013093;28;20472;-73
2022/12/15 16:45:17;;;;;;;26.80;19.63;;;2.20;86.00;;;;;;5017129;28;20455;-73
2022/12/15 16:47:44;;;;;;;28.57;19.83;;;2.10;86.00;;;;;;5016908;28;20510;-72
2022/12/15 16:50:13;;;;;;;23.97;18.60;;;2.10;86.40;;;;;;5016013;28;21004;-73
2022/12/15 16:52:41;;;;;;;31.87;20.77;;;2.00;86.40;;;;;;5015853;28;20977;-72
2022/12/15 16:55:18;;;;;;;24.70;18.23;;;2.00;86.50;;;;;;5016486;28;20456;-72
2022/12/15 16:57:45;;;;;;;25.90;18.23;;;2.00;86.70;;;;;;5016464;28;20432;-74
2022/12/15 17:00:18;;;;;;;26.83;17.67;;;2.10;86.70;;;;;;5016172;28;20452;-73
2022/12/15 17:02:45;;;;;;;27.17;20.57;;;2.10;86.30;;;;;;5015730;28;20485;-72
2022/12/15 17:05:11;;;;;;;26.90;18.27;;;2.20;86.00;;;;;;5016238;28;20444;-73
2022/12/15 17:07:39;;;;;;;28.13;18.87;;;2.30;85.70;;;;;;5016192;28;20483;-72
2022/12/15 17:10:06;;;;;;;29.87;20.40;;;2.40;85.30;;;;;;5016308;28;20535;-72
2022/12/15 17:12:33;;;;;;;21.50;17.27;;;2.30;85.30;;;;;;5015971;28;20465;-74
2022/12/15 17:15:01;;;;;;;28.57;19.60;;;2.30;85.40;;;;;;5015683;28;20447;-74
2022/12/15 17:17:29;;;;;;;24.67;18.60;;;2.40;85.50;;;;;;5015780;28;20444;-72
2022/12/15 17:19:56;;;;;;;25.00;19.47;;;2.40;85.00;;;;;;5015751;28;20466;-73
2022/12/15 17:22:24;;;;;;;27.40;18.97;;;2.50;84.70;;;;;;5015651;28;20522;-71
2022/12/15 17:24:51;;;;;;;22.80;16.87;;;2.40;84.80;;;;;;5015700;28;20456;-72
2022/12/15 17:27:26;;;;;;;25.07;18.27;;;2.50;84.80;;;;;;5015339;28;21023;-73
2022/12/15 17:29:54;;;;;;;26.13;17.50;;;2.40;84.30;;;;;;5015663;28;20452;-73
2022/12/15 17:32:21;;;;;;;24.07;19.30;;;2.30;84.40;;;;;;5015272;28;21076;-73
2022/12/15 17:34:49;;;;;;;26.80;18.37;;;2.30;85.10;;;;;;5015440;28;20862;-72
2022/12/15 17:37:16;;;;;;;22.27;16.47;;;2.20;84.70;;;;;;5015730;28;20450;-73
2022/12/15 17:39:49;;;;;;;24.97;16.10;;;2.10;84.80;;;;;;5015381;28;20445;-73
2022/12/15 17:42:18;;;;;;;21.30;16.20;;;2.10;85.20;;;;;;5015358;28;20472;-73
2022/12/15 17:44:46;;;;;;;21.83;14.77;;;2.20;85.20;;;;;;5015305;28;20455;-72
2022/12/15 17:47:13;;;;;;;21.60;15.77;;;2.20;84.90;;;;;;5015166;28;20488;-73
2022/12/15 17:49:40;;;;;;;23.27;17.73;;;2.10;85.00;;;;;;5015333;28;20472;-73
2022/12/15 17:52:21;;;;;;;20.30;16.10;;;2.10;85.10;;;;;;5014925;28;20579;-74
2022/12/15 17:54:47;;;;;;;21.63;16.03;;;2.20;85.20;;;;;;5015270;28;20436;-74
2022/12/15 17:57:14;;;;;;;24.00;17.83;;;2.30;85.20;;;;;;5015533;28;20572;-71
2022/12/15 17:59:41;;;;;;;22.67;17.13;;;2.30;84.70;;;;;;5014874;28;20991;-73
2022/12/15 18:02:11;;;;;;;23.13;16.93;;;2.30;84.30;;;;;;5014723;28;20538;-72
2022/12/15 18:04:38;;;;;;;23.87;15.90;;;2.30;84.20;;;;;;5015177;28;20514;-72